sensor_id;sensor_type;location;lat;lon;timestamp;P1;durP1;ratioP1;P2;durP2;ratioP2
60969;SDS011;46841;48.938;9.502;2023-08-12T00:00:49;0.10;;;0.10;;
60969;SDS011;46841;48.938;9.502;2023-08-12T00:03:15;0.20;;;0.20;;
60969;SDS011;46841;48.938;9.502;2023-08-12T00:05:41;0.20;;;0.20;;
60969;SDS011;46841;48.938;9.502;2023-08-12T00:08:08;0.20;;;0.20;;
60969;SDS011;46841;48.938;9.502;2023-08-12T00:10:34;0.20;;;0.20;;
60969;SDS011;46841;48.938;9.502;2023-08-12T00:12:59;0.20;;;0.20;;
60969;SDS011;46841;48.938;9.502;2023-08-12T00:15:25;0.20;;;0.20;;
60969;SDS011;46841;48.938;9.502;2023-08-12T00:17:52;0.20;;;0.20;;
60969;SDS011;46841;48.938;9.502;2023-08-12T00:20:17;0.20;;;0.20;;
60969;SDS011;46841;48.938;9.502;2023-08-12T00:22:43;0.20;;;0.20;;
60969;SDS011;46841;48.938;9.502;2023-08-12T00:25:08;0.20;;;0.20;;
60969;SDS011;46841;48.938;9.502;2023-08-12T00:27:34;0.20;;;0.20;;
60969;SDS011;46841;48.938;9.502;2023-08-12T00:30:00;0.20;;;0.20;;
60969;SDS011;46841;48.938;9.502;2023-08-12T00:32:26;0.10;;;0.10;;
60969;SDS011;46841;48.938;9.502;2023-08-12T00:34:51;0.20;;;0.20;;
60969;SDS011;46841;48.938;9.502;2023-08-12T00:37:16;0.10;;;0.10;;
60969;SDS011;46841;48.938;9.502;2023-08-12T00:39:42;0.20;;;0.20;;
60969;SDS011;46841;48.938;9.502;2023-08-12T00:42:07;0.20;;;0.20;;
60969;SDS011;46841;48.938;9.502;2023-08-12T00:44:33;0.10;;;0.10;;
60969;SDS011;46841;48.938;9.502;2023-08-12T00:46:59;0.20;;;0.20;;
60969;SDS011;46841;48.938;9.502;2023-08-12T00:49:24;0.20;;;0.20;;
60969;SDS011;46841;48.938;9.502;2023-08-12T00:51:52;0.20;;;0.20;;
60969;SDS011;46841;48.938;9.502;2023-08-12T00:54:18;0.20;;;0.20;;
60969;SDS011;46841;48.938;9.502;2023-08-12T00:56:46;0.20;;;0.20;;
60969;SDS011;46841;48.938;9.502;2023-08-12T00:59:11;0.20;;;0.20;;
60969;SDS011;46841;48.938;9.502;2023-08-12T01:01:38;0.20;;;0.20;;
60969;SDS011;46841;48.938;9.502;2023-08-12T01:04:08;0.20;;;0.20;;
60969;SDS011;46841;48.938;9.502;2023-08-12T01:06:33;0.20;;;0.20;;
60969;SDS011;46841;48.938;9.502;2023-08-12T01:09:00;0.20;;;0.20;;
60969;SDS011;46841;48.938;9.502;2023-08-12T01:11:34;0.20;;;0.20;;
60969;SDS011;46841;48.938;9.502;2023-08-12T01:14:25;0.20;;;0.20;;
60969;SDS011;46841;48.938;9.502;2023-08-12T01:16:57;0.20;;;0.20;;
60969;SDS011;46841;48.938;9.502;2023-08-12T01:19:34;0.20;;;0.20;;
60969;SDS011;46841;48.938;9.502;2023-08-12T01:22:02;0.20;;;0.20;;
60969;SDS011;46841;48.938;9.502;2023-08-12T01:24:42;0.20;;;0.20;;
60969;SDS011;46841;48.938;9.502;2023-08-12T01:27:09;0.20;;;0.20;;
60969;SDS011;46841;48.938;9.502;2023-08-12T01:32:14;0.20;;;0.20;;
60969;SDS011;46841;48.938;9.502;2023-08-12T01:37:32;0.20;;;0.20;;
60969;SDS011;46841;48.938;9.502;2023-08-12T01:40:00;0.20;;;0.20;;
60969;SDS011;46841;48.938;9.502;2023-08-12T01:42:30;0.20;;;0.20;;
60969;SDS011;46841;48.938;9.502;2023-08-12T01:47:23;0.20;;;0.20;;
60969;SDS011;46841;48.938;9.502;2023-08-12T01:49:49;0.20;;;0.20;;
60969;SDS011;46841;48.938;9.502;2023-08-12T01:52:14;0.20;;;0.20;;
60969;SDS011;46841;48.938;9.502;2023-08-12T01:54:40;0.20;;;0.20;;
60969;SDS011;46841;48.938;9.502;2023-08-12T01:57:06;0.20;;;0.20;;
60969;SDS011;46841;48.938;9.502;2023-08-12T01:59:33;0.20;;;0.20;;
60969;SDS011;46841;48.938;9.502;2023-08-12T02:01:59;0.20;;;0.20;;
60969;SDS011;46841;48.938;9.502;2023-08-12T02:04:25;0.20;;;0.20;;
60969;SDS011;46841;48.938;9.502;2023-08-12T02:06:51;0.20;;;0.20;;
60969;SDS011;46841;48.938;9.502;2023-08-12T02:09:18;0.30;;;0.30;;
60969;SDS011;46841;48.938;9.502;2023-08-12T02:11:44;0.20;;;0.20;;
60969;SDS011;46841;48.938;9.502;2023-08-12T02:14:09;0.20;;;0.20;;
60969;SDS011;46841;48.938;9.502;2023-08-12T02:16:35;0.20;;;0.20;;
60969;SDS011;46841;48.938;9.502;2023-08-12T02:19:00;0.20;;;0.20;;
60969;SDS011;46841;48.938;9.502;2023-08-12T02:21:26;0.20;;;0.20;;
60969;SDS011;46841;48.938;9.502;2023-08-12T02:23:51;0.20;;;0.20;;
60969;SDS011;46841;48.938;9.502;2023-08-12T02:26:17;0.20;;;0.20;;
60969;SDS011;46841;48.938;9.502;2023-08-12T02:28:42;0.20;;;0.20;;
60969;SDS011;46841;48.938;9.502;2023-08-12T02:31:07;0.20;;;0.20;;
60969;SDS011;46841;48.938;9.502;2023-08-12T02:33:33;0.20;;;0.20;;
60969;SDS011;46841;48.938;9.502;2023-08-12T02:35:58;0.20;;;0.20;;
60969;SDS011;46841;48.938;9.502;2023-08-12T02:38:24;0.20;;;0.20;;
60969;SDS011;46841;48.938;9.502;2023-08-12T02:40:50;0.20;;;0.20;;
60969;SDS011;46841;48.938;9.502;2023-08-12T02:43:15;0.20;;;0.20;;
60969;SDS011;46841;48.938;9.502;2023-08-12T02:45:41;0.20;;;0.20;;
60969;SDS011;46841;48.938;9.502;2023-08-12T02:48:09;0.20;;;0.20;;
60969;SDS011;46841;48.938;9.502;2023-08-12T02:50:35;0.20;;;0.20;;
60969;SDS011;46841;48.938;9.502;2023-08-12T02:53:00;0.20;;;0.20;;
60969;SDS011;46841;48.938;9.502;2023-08-12T02:55:26;0.20;;;0.20;;
60969;SDS011;46841;48.938;9.502;2023-08-12T02:57:51;0.20;;;0.20;;
60969;SDS011;46841;48.938;9.502;2023-08-12T03:00:16;0.20;;;0.20;;
60969;SDS011;46841;48.938;9.502;2023-08-12T03:02:43;0.20;;;0.20;;
60969;SDS011;46841;48.938;9.502;2023-08-12T03:05:08;0.20;;;0.20;;
60969;SDS011;46841;48.938;9.502;2023-08-12T03:07:34;0.20;;;0.20;;
60969;SDS011;46841;48.938;9.502;2023-08-12T03:10:00;0.20;;;0.20;;
60969;SDS011;46841;48.938;9.502;2023-08-12T03:12:25;0.20;;;0.20;;
60969;SDS011;46841;48.938;9.502;2023-08-12T03:14:51;0.20;;;0.20;;
60969;SDS011;46841;48.938;9.502;2023-08-12T03:17:16;0.20;;;0.20;;
60969;SDS011;46841;48.938;9.502;2023-08-12T03:19:42;0.20;;;0.20;;
60969;SDS011;46841;48.938;9.502;2023-08-12T03:22:07;0.13;;;0.13;;
60969;SDS011;46841;48.938;9.502;2023-08-12T03:24:35;0.20;;;0.20;;
60969;SDS011;46841;48.938;9.502;2023-08-12T03:27:01;0.20;;;0.20;;
60969;SDS011;46841;48.938;9.502;2023-08-12T03:29:28;0.20;;;0.20;;
60969;SDS011;46841;48.938;9.502;2023-08-12T03:31:53;0.10;;;0.10;;
60969;SDS011;46841;48.938;9.502;2023-08-12T03:34:20;0.20;;;0.20;;
60969;SDS011;46841;48.938;9.502;2023-08-12T03:36:45;0.20;;;0.20;;
60969;SDS011;46841;48.938;9.502;2023-08-12T03:39:17;0.10;;;0.10;;
60969;SDS011;46841;48.938;9.502;2023-08-12T03:41:42;0.10;;;0.10;;
60969;SDS011;46841;48.938;9.502;2023-08-12T03:44:08;0.20;;;0.20;;
60969;SDS011;46841;48.938;9.502;2023-08-12T03:46:34;0.20;;;0.20;;
60969;SDS011;46841;48.938;9.502;2023-08-12T03:49:00;0.10;;;0.10;;
60969;SDS011;46841;48.938;9.502;2023-08-12T03:51:26;0.20;;;0.20;;
60969;SDS011;46841;48.938;9.502;2023-08-12T03:53:51;0.20;;;0.20;;
60969;SDS011;46841;48.938;9.502;2023-08-12T03:56:17;0.10;;;0.10;;
60969;SDS011;46841;48.938;9.502;2023-08-12T03:58:42;0.10;;;0.10;;
60969;SDS011;46841;48.938;9.502;2023-08-12T04:01:08;0.20;;;0.20;;
60969;SDS011;46841;48.938;9.502;2023-08-12T04:03:34;0.20;;;0.20;;
60969;SDS011;46841;48.938;9.502;2023-08-12T04:05:59;0.10;;;0.10;;
60969;SDS011;46841;48.938;9.502;2023-08-12T04:08:25;0.20;;;0.20;;
60969;SDS011;46841;48.938;9.502;2023-08-12T04:10:50;0.20;;;0.20;;
60969;SDS011;46841;48.938;9.502;2023-08-12T04:13:16;0.20;;;0.20;;
60969;SDS011;46841;48.938;9.502;2023-08-12T04:15:42;0.20;;;0.20;;
60969;SDS011;46841;48.938;9.502;2023-08-12T04:18:13;0.10;;;0.10;;
60969;SDS011;46841;48.938;9.502;2023-08-12T04:20:39;0.20;;;0.20;;
60969;SDS011;46841;48.938;9.502;2023-08-12T04:23:04;0.10;;;0.10;;
60969;SDS011;46841;48.938;9.502;2023-08-12T04:25:30;0.20;;;0.20;;
60969;SDS011;46841;48.938;9.502;2023-08-12T04:27:55;0.20;;;0.20;;
60969;SDS011;46841;48.938;9.502;2023-08-12T04:30:21;0.10;;;0.10;;
60969;SDS011;46841;48.938;9.502;2023-08-12T04:32:47;0.20;;;0.20;;
60969;SDS011;46841;48.938;9.502;2023-08-12T04:35:12;0.20;;;0.20;;
60969;SDS011;46841;48.938;9.502;2023-08-12T04:37:38;0.20;;;0.20;;
60969;SDS011;46841;48.938;9.502;2023-08-12T04:40:05;0.20;;;0.20;;
60969;SDS011;46841;48.938;9.502;2023-08-12T04:42:34;0.10;;;0.10;;
60969;SDS011;46841;48.938;9.502;2023-08-12T04:44:59;0.20;;;0.20;;
60969;SDS011;46841;48.938;9.502;2023-08-12T04:47:28;0.20;;;0.20;;
60969;SDS011;46841;48.938;9.502;2023-08-12T04:49:54;0.20;;;0.20;;
60969;SDS011;46841;48.938;9.502;2023-08-12T04:52:19;0.10;;;0.10;;
60969;SDS011;46841;48.938;9.502;2023-08-12T04:54:46;0.20;;;0.20;;
60969;SDS011;46841;48.938;9.502;2023-08-12T04:57:12;0.10;;;0.10;;
60969;SDS011;46841;48.938;9.502;2023-08-12T04:59:37;0.20;;;0.20;;
60969;SDS011;46841;48.938;9.502;2023-08-12T05:02:03;0.10;;;0.10;;
60969;SDS011;46841;48.938;9.502;2023-08-12T05:04:29;0.10;;;0.10;;
60969;SDS011;46841;48.938;9.502;2023-08-12T05:06:55;0.20;;;0.20;;
60969;SDS011;46841;48.938;9.502;2023-08-12T05:09:21;0.20;;;0.20;;
60969;SDS011;46841;48.938;9.502;2023-08-12T05:11:46;0.20;;;0.20;;
60969;SDS011;46841;48.938;9.502;2023-08-12T05:14:11;0.10;;;0.10;;
60969;SDS011;46841;48.938;9.502;2023-08-12T05:16:37;0.10;;;0.10;;
60969;SDS011;46841;48.938;9.502;2023-08-12T05:19:02;0.10;;;0.10;;
60969;SDS011;46841;48.938;9.502;2023-08-12T05:21:28;0.10;;;0.10;;
60969;SDS011;46841;48.938;9.502;2023-08-12T05:23:54;0.10;;;0.10;;
60969;SDS011;46841;48.938;9.502;2023-08-12T05:26:19;0.20;;;0.20;;
60969;SDS011;46841;48.938;9.502;2023-08-12T05:28:46;0.17;;;0.17;;
60969;SDS011;46841;48.938;9.502;2023-08-12T05:31:11;0.10;;;0.10;;
60969;SDS011;46841;48.938;9.502;2023-08-12T05:33:37;0.15;;;0.15;;
60969;SDS011;46841;48.938;9.502;2023-08-12T05:36:02;0.20;;;0.20;;
60969;SDS011;46841;48.938;9.502;2023-08-12T05:38:28;0.10;;;0.10;;
60969;SDS011;46841;48.938;9.502;2023-08-12T05:40:53;0.10;;;0.10;;
60969;SDS011;46841;48.938;9.502;2023-08-12T05:43:18;0.15;;;0.15;;
60969;SDS011;46841;48.938;9.502;2023-08-12T05:45:44;0.10;;;0.10;;
60969;SDS011;46841;48.938;9.502;2023-08-12T05:48:09;0.10;;;0.10;;
60969;SDS011;46841;48.938;9.502;2023-08-12T05:50:35;0.10;;;0.10;;
60969;SDS011;46841;48.938;9.502;2023-08-12T05:53:00;0.10;;;0.10;;
60969;SDS011;46841;48.938;9.502;2023-08-12T05:55:25;0.10;;;0.10;;
60969;SDS011;46841;48.938;9.502;2023-08-12T05:57:51;0.17;;;0.17;;
60969;SDS011;46841;48.938;9.502;2023-08-12T06:00:16;0.10;;;0.10;;
60969;SDS011;46841;48.938;9.502;2023-08-12T06:02:42;0.20;;;0.20;;
60969;SDS011;46841;48.938;9.502;2023-08-12T06:05:08;0.10;;;0.10;;
60969;SDS011;46841;48.938;9.502;2023-08-12T06:07:33;0.10;;;0.10;;
60969;SDS011;46841;48.938;9.502;2023-08-12T06:09:59;0.10;;;0.10;;
60969;SDS011;46841;48.938;9.502;2023-08-12T06:12:25;0.10;;;0.10;;
60969;SDS011;46841;48.938;9.502;2023-08-12T06:14:50;0.10;;;0.10;;
60969;SDS011;46841;48.938;9.502;2023-08-12T06:17:16;0.10;;;0.10;;
60969;SDS011;46841;48.938;9.502;2023-08-12T06:19:41;0.10;;;0.10;;
60969;SDS011;46841;48.938;9.502;2023-08-12T06:22:07;0.10;;;0.10;;
60969;SDS011;46841;48.938;9.502;2023-08-12T06:24:32;0.10;;;0.10;;
60969;SDS011;46841;48.938;9.502;2023-08-12T06:26:58;0.10;;;0.10;;
60969;SDS011;46841;48.938;9.502;2023-08-12T06:29:23;0.10;;;0.10;;
60969;SDS011;46841;48.938;9.502;2023-08-12T06:31:48;0.15;;;0.15;;
60969;SDS011;46841;48.938;9.502;2023-08-12T06:34:14;0.10;;;0.10;;
60969;SDS011;46841;48.938;9.502;2023-08-12T06:36:39;0.20;;;0.20;;
60969;SDS011;46841;48.938;9.502;2023-08-12T06:39:05;0.20;;;0.20;;
60969;SDS011;46841;48.938;9.502;2023-08-12T06:41:30;0.10;;;0.10;;
60969;SDS011;46841;48.938;9.502;2023-08-12T06:43:55;0.10;;;0.10;;
60969;SDS011;46841;48.938;9.502;2023-08-12T06:46:21;0.20;;;0.20;;
60969;SDS011;46841;48.938;9.502;2023-08-12T06:48:46;0.10;;;0.10;;
60969;SDS011;46841;48.938;9.502;2023-08-12T06:51:12;0.10;;;0.10;;
60969;SDS011;46841;48.938;9.502;2023-08-12T06:53:38;0.20;;;0.20;;
60969;SDS011;46841;48.938;9.502;2023-08-12T06:56:04;0.10;;;0.10;;
60969;SDS011;46841;48.938;9.502;2023-08-12T06:58:30;0.10;;;0.10;;
60969;SDS011;46841;48.938;9.502;2023-08-12T07:00:55;0.10;;;0.10;;
60969;SDS011;46841;48.938;9.502;2023-08-12T07:03:21;0.10;;;0.10;;
60969;SDS011;46841;48.938;9.502;2023-08-12T07:05:47;0.10;;;0.10;;
60969;SDS011;46841;48.938;9.502;2023-08-12T07:08:13;0.10;;;0.10;;
60969;SDS011;46841;48.938;9.502;2023-08-12T07:10:39;0.10;;;0.10;;
60969;SDS011;46841;48.938;9.502;2023-08-12T07:13:05;0.10;;;0.10;;
60969;SDS011;46841;48.938;9.502;2023-08-12T07:15:30;0.10;;;0.10;;
60969;SDS011;46841;48.938;9.502;2023-08-12T07:17:56;0.10;;;0.10;;
60969;SDS011;46841;48.938;9.502;2023-08-12T07:20:23;0.10;;;0.10;;
60969;SDS011;46841;48.938;9.502;2023-08-12T07:22:49;0.10;;;0.10;;
60969;SDS011;46841;48.938;9.502;2023-08-12T07:25:15;0.10;;;0.10;;
60969;SDS011;46841;48.938;9.502;2023-08-12T07:27:40;0.10;;;0.10;;
60969;SDS011;46841;48.938;9.502;2023-08-12T07:30:06;0.10;;;0.10;;
60969;SDS011;46841;48.938;9.502;2023-08-12T07:32:32;0.10;;;0.10;;
60969;SDS011;46841;48.938;9.502;2023-08-12T07:34:58;0.10;;;0.10;;
60969;SDS011;46841;48.938;9.502;2023-08-12T07:37:23;0.10;;;0.10;;
60969;SDS011;46841;48.938;9.502;2023-08-12T07:39:49;0.10;;;0.10;;
60969;SDS011;46841;48.938;9.502;2023-08-12T07:42:14;0.10;;;0.10;;
60969;SDS011;46841;48.938;9.502;2023-08-12T07:44:40;0.10;;;0.10;;
60969;SDS011;46841;48.938;9.502;2023-08-12T07:47:05;0.10;;;0.10;;
60969;SDS011;46841;48.938;9.502;2023-08-12T07:49:30;0.10;;;0.10;;
60969;SDS011;46841;48.938;9.502;2023-08-12T07:51:56;0.10;;;0.10;;
60969;SDS011;46841;48.938;9.502;2023-08-12T07:54:21;0.10;;;0.10;;
60969;SDS011;46841;48.938;9.502;2023-08-12T07:56:47;0.00;;;0.00;;
60969;SDS011;46841;48.938;9.502;2023-08-12T07:59:12;0.03;;;0.03;;
60969;SDS011;46841;48.938;9.502;2023-08-12T08:01:41;0.00;;;0.00;;
60969;SDS011;46841;48.938;9.502;2023-08-12T08:04:06;0.10;;;0.10;;
60969;SDS011;46841;48.938;9.502;2023-08-12T08:06:32;0.10;;;0.10;;
60969;SDS011;46841;48.938;9.502;2023-08-12T08:08:58;0.10;;;0.10;;
60969;SDS011;46841;48.938;9.502;2023-08-12T08:11:25;0.00;;;0.00;;
60969;SDS011;46841;48.938;9.502;2023-08-12T08:13:51;0.00;;;0.00;;
60969;SDS011;46841;48.938;9.502;2023-08-12T08:16:16;0.00;;;0.00;;
60969;SDS011;46841;48.938;9.502;2023-08-12T08:18:42;0.00;;;0.00;;
60969;SDS011;46841;48.938;9.502;2023-08-12T08:21:07;0.00;;;0.00;;
60969;SDS011;46841;48.938;9.502;2023-08-12T08:23:33;0.00;;;0.00;;
60969;SDS011;46841;48.938;9.502;2023-08-12T08:25:58;0.00;;;0.00;;
60969;SDS011;46841;48.938;9.502;2023-08-12T08:28:23;0.00;;;0.00;;
60969;SDS011;46841;48.938;9.502;2023-08-12T08:30:49;0.00;;;0.00;;
60969;SDS011;46841;48.938;9.502;2023-08-12T08:33:14;0.00;;;0.00;;
60969;SDS011;46841;48.938;9.502;2023-08-12T08:35:39;0.00;;;0.00;;
60969;SDS011;46841;48.938;9.502;2023-08-12T08:38:05;0.00;;;0.00;;
60969;SDS011;46841;48.938;9.502;2023-08-12T08:40:30;0.00;;;0.00;;
60969;SDS011;46841;48.938;9.502;2023-08-12T08:42:56;0.00;;;0.00;;
60969;SDS011;46841;48.938;9.502;2023-08-12T08:45:26;0.00;;;0.00;;
60969;SDS011;46841;48.938;9.502;2023-08-12T08:47:54;0.00;;;0.00;;
60969;SDS011;46841;48.938;9.502;2023-08-12T08:50:20;0.00;;;0.00;;
60969;SDS011;46841;48.938;9.502;2023-08-12T08:55:12;0.00;;;0.00;;
60969;SDS011;46841;48.938;9.502;2023-08-12T08:57:39;0.00;;;0.00;;
60969;SDS011;46841;48.938;9.502;2023-08-12T09:00:06;0.00;;;0.00;;
60969;SDS011;46841;48.938;9.502;2023-08-12T09:02:36;0.00;;;0.00;;
60969;SDS011;46841;48.938;9.502;2023-08-12T09:05:02;0.00;;;0.00;;
60969;SDS011;46841;48.938;9.502;2023-08-12T09:07:28;0.00;;;0.00;;
60969;SDS011;46841;48.938;9.502;2023-08-12T09:12:21;0.00;;;0.00;;
60969;SDS011;46841;48.938;9.502;2023-08-12T09:17:14;0.00;;;0.00;;
60969;SDS011;46841;48.938;9.502;2023-08-12T09:19:40;0.00;;;0.00;;
60969;SDS011;46841;48.938;9.502;2023-08-12T09:22:06;0.00;;;0.00;;
60969;SDS011;46841;48.938;9.502;2023-08-12T09:24:34;0.00;;;0.00;;
60969;SDS011;46841;48.938;9.502;2023-08-12T09:26:59;0.00;;;0.00;;
60969;SDS011;46841;48.938;9.502;2023-08-12T09:29:32;0.00;;;0.00;;
60969;SDS011;46841;48.938;9.502;2023-08-12T09:32:09;0.00;;;0.00;;
60969;SDS011;46841;48.938;9.502;2023-08-12T09:37:15;0.00;;;0.00;;
60969;SDS011;46841;48.938;9.502;2023-08-12T09:39:41;0.00;;;0.00;;
60969;SDS011;46841;48.938;9.502;2023-08-12T09:42:06;0.00;;;0.00;;
60969;SDS011;46841;48.938;9.502;2023-08-12T09:44:36;0.00;;;0.00;;
60969;SDS011;46841;48.938;9.502;2023-08-12T09:47:02;0.00;;;0.00;;
60969;SDS011;46841;48.938;9.502;2023-08-12T09:49:28;0.00;;;0.00;;
60969;SDS011;46841;48.938;9.502;2023-08-12T09:51:54;0.00;;;0.00;;
60969;SDS011;46841;48.938;9.502;2023-08-12T09:54:20;0.00;;;0.00;;
60969;SDS011;46841;48.938;9.502;2023-08-12T09:56:49;0.00;;;0.00;;
60969;SDS011;46841;48.938;9.502;2023-08-12T09:59:21;0.00;;;0.00;;
60969;SDS011;46841;48.938;9.502;2023-08-12T10:01:50;0.00;;;0.00;;
60969;SDS011;46841;48.938;9.502;2023-08-12T10:04:18;0.00;;;0.00;;
60969;SDS011;46841;48.938;9.502;2023-08-12T10:06:47;0.00;;;0.00;;
60969;SDS011;46841;48.938;9.502;2023-08-12T10:09:15;0.00;;;0.00;;
60969;SDS011;46841;48.938;9.502;2023-08-12T10:11:44;0.00;;;0.00;;
60969;SDS011;46841;48.938;9.502;2023-08-12T10:14:11;0.00;;;0.00;;
60969;SDS011;46841;48.938;9.502;2023-08-12T10:16:37;0.00;;;0.00;;
60969;SDS011;46841;48.938;9.502;2023-08-12T10:21:30;0.00;;;0.00;;
60969;SDS011;46841;48.938;9.502;2023-08-12T10:23:57;0.00;;;0.00;;
60969;SDS011;46841;48.938;9.502;2023-08-12T10:26:26;0.00;;;0.00;;
60969;SDS011;46841;48.938;9.502;2023-08-12T10:28:53;0.00;;;0.00;;
60969;SDS011;46841;48.938;9.502;2023-08-12T10:31:19;0.00;;;0.00;;
60969;SDS011;46841;48.938;9.502;2023-08-12T10:33:45;0.00;;;0.00;;
60969;SDS011;46841;48.938;9.502;2023-08-12T10:36:15;0.00;;;0.00;;
60969;SDS011;46841;48.938;9.502;2023-08-12T10:38:41;0.00;;;0.00;;
60969;SDS011;46841;48.938;9.502;2023-08-12T10:41:15;0.00;;;0.00;;
60969;SDS011;46841;48.938;9.502;2023-08-12T10:44:00;0.00;;;0.00;;
60969;SDS011;46841;48.938;9.502;2023-08-12T10:46:36;0.00;;;0.00;;
60969;SDS011;46841;48.938;9.502;2023-08-12T10:49:03;0.00;;;0.00;;
60969;SDS011;46841;48.938;9.502;2023-08-12T10:54:20;0.00;;;0.00;;
60969;SDS011;46841;48.938;9.502;2023-08-12T11:07:42;0.00;;;0.00;;
60969;SDS011;46841;48.938;9.502;2023-08-12T11:10:31;0.00;;;0.00;;
60969;SDS011;46841;48.938;9.502;2023-08-12T11:12:58;0.00;;;0.00;;
60969;SDS011;46841;48.938;9.502;2023-08-12T11:18:20;0.00;;;0.00;;
60969;SDS011;46841;48.938;9.502;2023-08-12T11:20:48;0.00;;;0.00;;
60969;SDS011;46841;48.938;9.502;2023-08-12T11:23:14;0.00;;;0.00;;
60969;SDS011;46841;48.938;9.502;2023-08-12T11:25:42;0.00;;;0.00;;
60969;SDS011;46841;48.938;9.502;2023-08-12T11:28:09;0.00;;;0.00;;
60969;SDS011;46841;48.938;9.502;2023-08-12T11:30:34;0.00;;;0.00;;
60969;SDS011;46841;48.938;9.502;2023-08-12T11:33:00;0.00;;;0.00;;
60969;SDS011;46841;48.938;9.502;2023-08-12T11:35:26;0.00;;;0.00;;
60969;SDS011;46841;48.938;9.502;2023-08-12T11:37:53;0.00;;;0.00;;
60969;SDS011;46841;48.938;9.502;2023-08-12T11:40:21;0.00;;;0.00;;
60969;SDS011;46841;48.938;9.502;2023-08-12T11:42:49;0.00;;;0.00;;
60969;SDS011;46841;48.938;9.502;2023-08-12T11:45:16;0.00;;;0.00;;
60969;SDS011;46841;48.938;9.502;2023-08-12T11:47:43;0.00;;;0.00;;
60969;SDS011;46841;48.938;9.502;2023-08-12T11:50:11;0.00;;;0.00;;
60969;SDS011;46841;48.938;9.502;2023-08-12T11:52:38;0.00;;;0.00;;
60969;SDS011;46841;48.938;9.502;2023-08-12T11:55:05;0.00;;;0.00;;
60969;SDS011;46841;48.938;9.502;2023-08-12T11:57:31;0.00;;;0.00;;
60969;SDS011;46841;48.938;9.502;2023-08-12T12:00:10;0.00;;;0.00;;
60969;SDS011;46841;48.938;9.502;2023-08-12T12:02:48;0.00;;;0.00;;
60969;SDS011;46841;48.938;9.502;2023-08-12T12:05:16;0.00;;;0.00;;
60969;SDS011;46841;48.938;9.502;2023-08-12T12:07:42;0.00;;;0.00;;
60969;SDS011;46841;48.938;9.502;2023-08-12T12:12:37;0.00;;;0.00;;
60969;SDS011;46841;48.938;9.502;2023-08-12T12:15:03;0.00;;;0.00;;
60969;SDS011;46841;48.938;9.502;2023-08-12T12:17:30;0.00;;;0.00;;
60969;SDS011;46841;48.938;9.502;2023-08-12T12:19:56;0.00;;;0.00;;
60969;SDS011;46841;48.938;9.502;2023-08-12T12:22:29;0.00;;;0.00;;
60969;SDS011;46841;48.938;9.502;2023-08-12T12:24:57;0.00;;;0.00;;
60969;SDS011;46841;48.938;9.502;2023-08-12T12:27:31;0.00;;;0.00;;
60969;SDS011;46841;48.938;9.502;2023-08-12T12:29:56;0.00;;;0.00;;
60969;SDS011;46841;48.938;9.502;2023-08-12T12:32:22;0.00;;;0.00;;
60969;SDS011;46841;48.938;9.502;2023-08-12T12:34:48;0.10;;;0.10;;
60969;SDS011;46841;48.938;9.502;2023-08-12T12:37:13;0.00;;;0.00;;
60969;SDS011;46841;48.938;9.502;2023-08-12T12:39:40;0.10;;;0.10;;
60969;SDS011;46841;48.938;9.502;2023-08-12T12:42:06;0.10;;;0.10;;
60969;SDS011;46841;48.938;9.502;2023-08-12T12:44:31;0.10;;;0.10;;
60969;SDS011;46841;48.938;9.502;2023-08-12T12:47:55;0.10;;;0.10;;
60969;SDS011;46841;48.938;9.502;2023-08-12T12:51:19;0.10;;;0.10;;
60969;SDS011;46841;48.938;9.502;2023-08-12T12:54:43;0.10;;;0.10;;
60969;SDS011;46841;48.938;9.502;2023-08-12T12:58:07;0.10;;;0.10;;
60969;SDS011;46841;48.938;9.502;2023-08-12T13:01:31;0.10;;;0.10;;
60969;SDS011;46841;48.938;9.502;2023-08-12T13:04:55;0.10;;;0.10;;
60969;SDS011;46841;48.938;9.502;2023-08-12T13:08:22;0.10;;;0.10;;
60969;SDS011;46841;48.938;9.502;2023-08-12T13:11:46;0.10;;;0.10;;
60969;SDS011;46841;48.938;9.502;2023-08-12T13:15:10;0.10;;;0.10;;
60969;SDS011;46841;48.938;9.502;2023-08-12T13:18:34;0.10;;;0.10;;
60969;SDS011;46841;48.938;9.502;2023-08-12T13:21:58;0.10;;;0.10;;
60969;SDS011;46841;48.938;9.502;2023-08-12T13:25:22;0.10;;;0.10;;
60969;SDS011;46841;48.938;9.502;2023-08-12T13:28:46;0.10;;;0.10;;
60969;SDS011;46841;48.938;9.502;2023-08-12T13:32:10;0.10;;;0.10;;
60969;SDS011;46841;48.938;9.502;2023-08-12T13:35:34;0.10;;;0.10;;
60969;SDS011;46841;48.938;9.502;2023-08-12T13:38:58;0.10;;;0.10;;
60969;SDS011;46841;48.938;9.502;2023-08-12T13:42:22;0.10;;;0.10;;
60969;SDS011;46841;48.938;9.502;2023-08-12T13:45:46;0.10;;;0.10;;
60969;SDS011;46841;48.938;9.502;2023-08-12T13:49:10;0.10;;;0.10;;
60969;SDS011;46841;48.938;9.502;2023-08-12T13:52:34;0.10;;;0.10;;
60969;SDS011;46841;48.938;9.502;2023-08-12T13:55:58;0.10;;;0.10;;
60969;SDS011;46841;48.938;9.502;2023-08-12T13:59:22;0.10;;;0.10;;
60969;SDS011;46841;48.938;9.502;2023-08-12T14:02:46;0.10;;;0.10;;
60969;SDS011;46841;48.938;9.502;2023-08-12T14:06:10;0.10;;;0.10;;
60969;SDS011;46841;48.938;9.502;2023-08-12T14:09:34;0.10;;;0.10;;
60969;SDS011;46841;48.938;9.502;2023-08-12T14:12:58;0.10;;;0.10;;
60969;SDS011;46841;48.938;9.502;2023-08-12T14:16:22;0.10;;;0.10;;
60969;SDS011;46841;48.938;9.502;2023-08-12T14:19:48;0.10;;;0.10;;
60969;SDS011;46841;48.938;9.502;2023-08-12T14:23:12;0.20;;;0.20;;
60969;SDS011;46841;48.938;9.502;2023-08-12T14:26:38;0.10;;;0.10;;
60969;SDS011;46841;48.938;9.502;2023-08-12T14:30:02;0.10;;;0.10;;
60969;SDS011;46841;48.938;9.502;2023-08-12T14:33:27;0.10;;;0.10;;
60969;SDS011;46841;48.938;9.502;2023-08-12T14:36:50;0.00;;;0.00;;
60969;SDS011;46841;48.938;9.502;2023-08-12T14:40:14;0.00;;;0.00;;
60969;SDS011;46841;48.938;9.502;2023-08-12T14:43:38;0.00;;;0.00;;
60969;SDS011;46841;48.938;9.502;2023-08-12T14:47:02;0.00;;;0.00;;
60969;SDS011;46841;48.938;9.502;2023-08-12T14:53:50;0.00;;;0.00;;
60969;SDS011;46841;48.938;9.502;2023-08-12T14:57:14;0.00;;;0.00;;
60969;SDS011;46841;48.938;9.502;2023-08-12T15:00:38;0.00;;;0.00;;
60969;SDS011;46841;48.938;9.502;2023-08-12T15:04:02;0.00;;;0.00;;
60969;SDS011;46841;48.938;9.502;2023-08-12T15:07:26;0.00;;;0.00;;
60969;SDS011;46841;48.938;9.502;2023-08-12T15:10:50;0.00;;;0.00;;
60969;SDS011;46841;48.938;9.502;2023-08-12T15:14:15;0.00;;;0.00;;
60969;SDS011;46841;48.938;9.502;2023-08-12T15:21:04;0.00;;;0.00;;
60969;SDS011;46841;48.938;9.502;2023-08-12T15:24:28;0.00;;;0.00;;
60969;SDS011;46841;48.938;9.502;2023-08-12T15:31:17;0.00;;;0.00;;
60969;SDS011;46841;48.938;9.502;2023-08-12T15:38:05;0.00;;;0.00;;
60969;SDS011;46841;48.938;9.502;2023-08-12T15:41:29;0.00;;;0.00;;
60969;SDS011;46841;48.938;9.502;2023-08-12T15:44:53;0.00;;;0.00;;
60969;SDS011;46841;48.938;9.502;2023-08-12T15:48:16;0.00;;;0.00;;
60969;SDS011;46841;48.938;9.502;2023-08-12T15:51:40;0.00;;;0.00;;
60969;SDS011;46841;48.938;9.502;2023-08-12T15:55:05;0.00;;;0.00;;
60969;SDS011;46841;48.938;9.502;2023-08-12T15:58:29;0.00;;;0.00;;
60969;SDS011;46841;48.938;9.502;2023-08-12T16:01:53;0.00;;;0.00;;
60969;SDS011;46841;48.938;9.502;2023-08-12T16:05:17;0.00;;;0.00;;
60969;SDS011;46841;48.938;9.502;2023-08-12T16:08:41;0.00;;;0.00;;
60969;SDS011;46841;48.938;9.502;2023-08-12T16:12:05;0.00;;;0.00;;
60969;SDS011;46841;48.938;9.502;2023-08-12T16:15:29;0.00;;;0.00;;
60969;SDS011;46841;48.938;9.502;2023-08-12T16:18:53;0.00;;;0.00;;
60969;SDS011;46841;48.938;9.502;2023-08-12T16:22:17;0.00;;;0.00;;
60969;SDS011;46841;48.938;9.502;2023-08-12T16:25:41;0.00;;;0.00;;
60969;SDS011;46841;48.938;9.502;2023-08-12T16:29:05;0.00;;;0.00;;
60969;SDS011;46841;48.938;9.502;2023-08-12T16:32:30;0.57;;;0.43;;
60969;SDS011;46841;48.938;9.502;2023-08-12T16:35:54;0.00;;;0.00;;
60969;SDS011;46841;48.938;9.502;2023-08-12T16:39:17;0.00;;;0.00;;